AXM110 OEDF-OKKK
Flight info
| Callsign | AXM110 |
|---|---|
| Flight time | 0h 37m |
| Altitude | 22000 |
| Route | PAYLOAD/CARGO LIMITED BY MZFW |
| Aircraft | A333/H-V/N |
Departure
| Time | 2026-05-08 18:30 |
|---|---|
| Airport | King Fahd International Airport (OEDF) |
Arrival
| Time | 2026-05-08 19:07 |
|---|---|
| Airport | Kuwait International Airport (OKKK) |
| Time | Latitude | Longitude | Altitude | Speed | Heading |
|---|---|---|---|---|---|
| 2026-05-08 18:07 | 26.47022 | 49.79415 | 81 ft | 0 kts | 63° |
| 2026-05-08 18:16 | 26.47018 | 49.79405 | 81 ft | 3 kts | 63° |
| 2026-05-08 18:17 | 26.47009 | 49.79386 | 80 ft | 1 kts | 63° |
| 2026-05-08 18:17 | 26.47004 | 49.79375 | 79 ft | 1 kts | 57° |
| 2026-05-08 18:17 | 26.47002 | 49.79370 | 79 ft | 0 kts | 51° |
| 2026-05-08 18:18 | 26.46997 | 49.79364 | 79 ft | 1 kts | 38° |
| 2026-05-08 18:18 | 26.46990 | 49.79359 | 79 ft | 1 kts | 22° |
| 2026-05-08 18:18 | 26.46983 | 49.79356 | 80 ft | 1 kts | 8° |
| 2026-05-08 18:18 | 26.46975 | 49.79355 | 80 ft | 1 kts | 354° |
| 2026-05-08 18:19 | 26.46967 | 49.79356 | 80 ft | 1 kts | 340° |
| 2026-05-08 18:19 | 26.46961 | 49.79359 | 80 ft | 0 kts | 334° |
| 2026-05-08 18:19 | 26.46960 | 49.79359 | 80 ft | 0 kts | 333° |
| 2026-05-08 18:19 | 26.46973 | 49.79351 | 80 ft | 2 kts | 333° |
| 2026-05-08 18:20 | 26.46998 | 49.79338 | 78 ft | 5 kts | 333° |
| 2026-05-08 18:20 | 26.47038 | 49.79318 | 77 ft | 7 kts | 341° |
| 2026-05-08 18:20 | 26.47071 | 49.79304 | 75 ft | 8 kts | 340° |
| 2026-05-08 18:20 | 26.47139 | 49.79268 | 71 ft | 13 kts | 331° |
| 2026-05-08 18:21 | 26.47234 | 49.79214 | 65 ft | 17 kts | 335° |
| 2026-05-08 18:21 | 26.47350 | 49.79156 | 60 ft | 19 kts | 340° |
| 2026-05-08 18:21 | 26.47480 | 49.79128 | 58 ft | 18 kts | 12° |
| 2026-05-08 18:21 | 26.47548 | 49.79227 | 62 ft | 14 kts | 73° |
| 2026-05-08 18:22 | 26.47568 | 49.79305 | 68 ft | 6 kts | 75° |
| 2026-05-08 18:22 | 26.47574 | 49.79330 | 70 ft | 1 kts | 75° |
| 2026-05-08 18:22 | 26.47579 | 49.79350 | 71 ft | 3 kts | 75° |
| 2026-05-08 18:22 | 26.47590 | 49.79393 | 73 ft | 8 kts | 74° |
| 2026-05-08 18:23 | 26.47613 | 49.79485 | 73 ft | 16 kts | 74° |
| 2026-05-08 18:23 | 26.47655 | 49.79644 | 71 ft | 25 kts | 73° |
| 2026-05-08 18:23 | 26.47693 | 49.79797 | 71 ft | 16 kts | 75° |
| 2026-05-08 18:23 | 26.47724 | 49.79931 | 70 ft | 19 kts | 75° |
| 2026-05-08 18:24 | 26.47764 | 49.80091 | 67 ft | 22 kts | 74° |
| 2026-05-08 18:24 | 26.47809 | 49.80270 | 67 ft | 24 kts | 75° |
| 2026-05-08 18:24 | 26.47829 | 49.80458 | 70 ft | 24 kts | 112° |
| 2026-05-08 18:24 | 26.47728 | 49.80601 | 74 ft | 21 kts | 134° |
| 2026-05-08 18:25 | 26.47620 | 49.80723 | 76 ft | 22 kts | 138° |
| 2026-05-08 18:25 | 26.47448 | 49.80810 | 77 ft | 42 kts | 163° |
| 2026-05-08 18:25 | 26.47220 | 49.80946 | 79 ft | 16 kts | 76° |
| 2026-05-08 18:25 | 26.47204 | 49.81092 | 79 ft | 27 kts | 156° |
| 2026-05-08 18:26 | 26.46957 | 49.81164 | 80 ft | 39 kts | 165° |
| 2026-05-08 18:26 | 26.46694 | 49.81250 | 82 ft | 38 kts | 162° |
| 2026-05-08 18:26 | 26.46441 | 49.81330 | 83 ft | 36 kts | 166° |
| 2026-05-08 18:26 | 26.46199 | 49.81403 | 85 ft | 35 kts | 163° |
| 2026-05-08 18:27 | 26.45969 | 49.81479 | 84 ft | 34 kts | 164° |
| 2026-05-08 18:27 | 26.45814 | 49.81526 | 83 ft | 33 kts | 165° |
| 2026-05-08 18:27 | 26.45513 | 49.81617 | 79 ft | 31 kts | 168° |
| 2026-05-08 18:27 | 26.45424 | 49.81549 | 78 ft | 7 kts | 254° |
| 2026-05-08 18:28 | 26.45424 | 49.81546 | 78 ft | 0 kts | 255° |
| 2026-05-08 18:28 | 26.45418 | 49.81521 | 78 ft | 10 kts | 259° |
| 2026-05-08 18:28 | 26.45476 | 49.81420 | 79 ft | 22 kts | 336° |
| 2026-05-08 18:29 | 26.45673 | 49.81353 | 80 ft | 40 kts | 345° |
| 2026-05-08 18:29 | 26.46172 | 49.81204 | 83 ft | 108 kts | 345° |
| 2026-05-08 18:29 | 26.47104 | 49.80912 | 91 ft | 164 kts | 345° |
| 2026-05-08 18:29 | 26.48257 | 49.80546 | 613 ft | 175 kts | 344° |
| 2026-05-08 18:30 | 26.49430 | 49.80113 | 1307 ft | 183 kts | 344° |
| 2026-05-08 18:30 | 26.50631 | 49.79759 | 2181 ft | 180 kts | 349° |
| 2026-05-08 18:30 | 26.51838 | 49.79450 | 2713 ft | 179 kts | 343° |
| 2026-05-08 18:30 | 26.53019 | 49.79082 | 3250 ft | 177 kts | 342° |
| 2026-05-08 18:31 | 26.54277 | 49.78712 | 3508 ft | 197 kts | 346° |
| 2026-05-08 18:31 | 26.55674 | 49.78283 | 3845 ft | 219 kts | 345° |
| 2026-05-08 18:31 | 26.57201 | 49.77800 | 4280 ft | 236 kts | 344° |
| 2026-05-08 18:31 | 26.58685 | 49.76944 | 4671 ft | 254 kts | 321° |
| 2026-05-08 18:32 | 26.60088 | 49.75680 | 5274 ft | 262 kts | 324° |
| 2026-05-08 18:32 | 26.61583 | 49.74458 | 5996 ft | 266 kts | 325° |
| 2026-05-08 18:32 | 26.63082 | 49.73257 | 6668 ft | 271 kts | 324° |
| 2026-05-08 18:32 | 26.64621 | 49.72029 | 7391 ft | 274 kts | 324° |
| 2026-05-08 18:33 | 26.66169 | 49.70796 | 8120 ft | 276 kts | 323° |
| 2026-05-08 18:33 | 26.67759 | 49.69529 | 8765 ft | 281 kts | 323° |
| 2026-05-08 18:33 | 26.69348 | 49.68263 | 9432 ft | 284 kts | 323° |
| 2026-05-08 18:33 | 26.70958 | 49.66980 | 10085 ft | 288 kts | 322° |
| 2026-05-08 18:34 | 26.72636 | 49.65640 | 10488 ft | 303 kts | 323° |
| 2026-05-08 18:34 | 26.74402 | 49.64232 | 10734 ft | 321 kts | 323° |
| 2026-05-08 18:34 | 26.76294 | 49.62747 | 10952 ft | 339 kts | 323° |
| 2026-05-08 18:34 | 26.78230 | 49.61234 | 11462 ft | 346 kts | 323° |
| 2026-05-08 18:35 | 26.80214 | 49.59680 | 12087 ft | 349 kts | 323° |
| 2026-05-08 18:35 | 26.82211 | 49.58116 | 12665 ft | 354 kts | 323° |
| 2026-05-08 18:35 | 26.84243 | 49.56524 | 13232 ft | 359 kts | 323° |
| 2026-05-08 18:35 | 26.86314 | 49.54899 | 13848 ft | 362 kts | 322° |
| 2026-05-08 18:36 | 26.88379 | 49.53276 | 14420 ft | 365 kts | 322° |
| 2026-05-08 18:36 | 26.90473 | 49.51635 | 14989 ft | 369 kts | 322° |
| 2026-05-08 18:36 | 26.92571 | 49.49988 | 15564 ft | 372 kts | 322° |
| 2026-05-08 18:36 | 26.94701 | 49.48314 | 16020 ft | 378 kts | 322° |
| 2026-05-08 18:37 | 26.96862 | 49.46616 | 16616 ft | 379 kts | 321° |
| 2026-05-08 18:37 | 26.99022 | 49.44915 | 17208 ft | 381 kts | 321° |
| 2026-05-08 18:37 | 27.01196 | 49.43205 | 17686 ft | 385 kts | 321° |
| 2026-05-08 18:37 | 27.03398 | 49.41469 | 18189 ft | 389 kts | 321° |
| 2026-05-08 18:38 | 27.05629 | 49.39711 | 18675 ft | 393 kts | 321° |
| 2026-05-08 18:38 | 27.07875 | 49.37938 | 19144 ft | 397 kts | 321° |
| 2026-05-08 18:38 | 27.10128 | 49.36161 | 19621 ft | 400 kts | 320° |
| 2026-05-08 18:38 | 27.12449 | 49.34329 | 20048 ft | 404 kts | 320° |
| 2026-05-08 18:39 | 27.14792 | 49.32479 | 20499 ft | 407 kts | 320° |
| 2026-05-08 18:39 | 27.17166 | 49.30603 | 20981 ft | 409 kts | 320° |
| 2026-05-08 18:39 | 27.19520 | 49.28740 | 21434 ft | 412 kts | 319° |
| 2026-05-08 18:39 | 27.21904 | 49.26857 | 21913 ft | 413 kts | 319° |
| 2026-05-08 18:40 | 27.24287 | 49.25001 | 21885 ft | 418 kts | 321° |
| 2026-05-08 18:40 | 27.26698 | 49.23185 | 21881 ft | 412 kts | 321° |
| 2026-05-08 18:40 | 27.29074 | 49.21388 | 21918 ft | 411 kts | 320° |
| 2026-05-08 18:40 | 27.31415 | 49.19617 | 21901 ft | 409 kts | 320° |
| 2026-05-08 18:41 | 27.33786 | 49.17820 | 21902 ft | 410 kts | 320° |
| 2026-05-08 18:41 | 27.36221 | 49.16132 | 21898 ft | 411 kts | 324° |
| 2026-05-08 18:41 | 27.38703 | 49.14511 | 21905 ft | 412 kts | 324° |
| 2026-05-08 18:41 | 27.41189 | 49.12870 | 21907 ft | 413 kts | 324° |
| 2026-05-08 18:42 | 27.43661 | 49.11235 | 21900 ft | 413 kts | 324° |
| 2026-05-08 18:42 | 27.46146 | 49.09587 | 21904 ft | 414 kts | 324° |
| 2026-05-08 18:42 | 27.48622 | 49.07944 | 21908 ft | 413 kts | 324° |
| 2026-05-08 18:42 | 27.51091 | 49.06302 | 21898 ft | 414 kts | 324° |
| 2026-05-08 18:43 | 27.53586 | 49.04643 | 21905 ft | 413 kts | 324° |
| 2026-05-08 18:43 | 27.56050 | 49.03006 | 21903 ft | 412 kts | 324° |
| 2026-05-08 18:43 | 27.58524 | 49.01360 | 21906 ft | 415 kts | 324° |
| 2026-05-08 18:43 | 27.61020 | 48.99699 | 21902 ft | 412 kts | 324° |
| 2026-05-08 18:44 | 27.63477 | 48.98063 | 21908 ft | 414 kts | 324° |
| 2026-05-08 18:44 | 27.65953 | 48.96411 | 21913 ft | 414 kts | 324° |
| 2026-05-08 18:44 | 27.68450 | 48.94747 | 21905 ft | 414 kts | 324° |
| 2026-05-08 18:44 | 27.70944 | 48.93086 | 21907 ft | 413 kts | 324° |
| 2026-05-08 18:45 | 27.73400 | 48.91443 | 21911 ft | 414 kts | 324° |
| 2026-05-08 18:45 | 27.75903 | 48.89772 | 21907 ft | 414 kts | 324° |
| 2026-05-08 18:45 | 27.78381 | 48.88117 | 21919 ft | 415 kts | 324° |
| 2026-05-08 18:45 | 27.80859 | 48.86459 | 21915 ft | 415 kts | 324° |
| 2026-05-08 18:46 | 27.83361 | 48.84787 | 21916 ft | 414 kts | 324° |
| 2026-05-08 18:46 | 27.85822 | 48.83140 | 21913 ft | 413 kts | 324° |
| 2026-05-08 18:46 | 27.88290 | 48.81486 | 21916 ft | 415 kts | 324° |
| 2026-05-08 18:46 | 27.90809 | 48.79801 | 21917 ft | 415 kts | 324° |
| 2026-05-08 18:47 | 27.93257 | 48.78158 | 21920 ft | 414 kts | 324° |
| 2026-05-08 18:47 | 27.95764 | 48.76476 | 21400 ft | 418 kts | 324° |
| 2026-05-08 18:47 | 27.98283 | 48.74783 | 20590 ft | 422 kts | 324° |
| 2026-05-08 18:47 | 28.00773 | 48.73114 | 20097 ft | 417 kts | 324° |
| 2026-05-08 18:48 | 28.03242 | 48.71455 | 19538 ft | 413 kts | 325° |
| 2026-05-08 18:48 | 28.05727 | 48.69784 | 19009 ft | 408 kts | 325° |
| 2026-05-08 18:48 | 28.08155 | 48.68153 | 18495 ft | 403 kts | 325° |
| 2026-05-08 18:48 | 28.10542 | 48.66545 | 17986 ft | 397 kts | 326° |
| 2026-05-08 18:49 | 28.12916 | 48.64949 | 17489 ft | 391 kts | 326° |
| 2026-05-08 18:49 | 28.15250 | 48.63375 | 16986 ft | 386 kts | 326° |
| 2026-05-08 18:49 | 28.17557 | 48.61821 | 16488 ft | 380 kts | 326° |
| 2026-05-08 18:49 | 28.19802 | 48.60306 | 16014 ft | 375 kts | 326° |
| 2026-05-08 18:50 | 28.22035 | 48.58800 | 15529 ft | 370 kts | 327° |
| 2026-05-08 18:50 | 28.24220 | 48.57325 | 15057 ft | 365 kts | 327° |
| 2026-05-08 18:50 | 28.26384 | 48.55864 | 14582 ft | 361 kts | 327° |
| 2026-05-08 18:50 | 28.28549 | 48.54402 | 14105 ft | 357 kts | 327° |
| 2026-05-08 18:51 | 28.30678 | 48.52962 | 13621 ft | 353 kts | 328° |
| 2026-05-08 18:51 | 28.32773 | 48.51544 | 13135 ft | 350 kts | 328° |
| 2026-05-08 18:51 | 28.34856 | 48.50138 | 12669 ft | 346 kts | 328° |
| 2026-05-08 18:51 | 28.36914 | 48.48745 | 12210 ft | 343 kts | 328° |
| 2026-05-08 18:52 | 28.38947 | 48.47371 | 11776 ft | 339 kts | 328° |
| 2026-05-08 18:52 | 28.40953 | 48.46010 | 11348 ft | 336 kts | 328° |
| 2026-05-08 18:52 | 28.42946 | 48.44659 | 10942 ft | 332 kts | 328° |
| 2026-05-08 18:52 | 28.44934 | 48.43313 | 10553 ft | 327 kts | 327° |
| 2026-05-08 18:53 | 28.46861 | 48.42007 | 10348 ft | 317 kts | 327° |
| 2026-05-08 18:53 | 28.48727 | 48.40739 | 10286 ft | 310 kts | 327° |
| 2026-05-08 18:53 | 28.50543 | 48.39507 | 10184 ft | 300 kts | 327° |
| 2026-05-08 18:53 | 28.52303 | 48.38311 | 10076 ft | 289 kts | 327° |
| 2026-05-08 18:54 | 28.54024 | 48.37150 | 9972 ft | 279 kts | 329° |
| 2026-05-08 18:54 | 28.55723 | 48.36142 | 9757 ft | 275 kts | 330° |
| 2026-05-08 18:54 | 28.57417 | 48.35143 | 9473 ft | 273 kts | 330° |
| 2026-05-08 18:54 | 28.59109 | 48.34141 | 9215 ft | 270 kts | 329° |
| 2026-05-08 18:55 | 28.62434 | 48.32173 | 8703 ft | 265 kts | 329° |
| 2026-05-08 18:55 | 28.64064 | 48.31206 | 8463 ft | 262 kts | 329° |
| 2026-05-08 18:55 | 28.65683 | 48.30244 | 8226 ft | 260 kts | 329° |
| 2026-05-08 18:56 | 28.67279 | 48.29298 | 7993 ft | 257 kts | 329° |
| 2026-05-08 18:56 | 28.68858 | 48.28361 | 7759 ft | 255 kts | 328° |
| 2026-05-08 18:56 | 28.70420 | 48.27434 | 7537 ft | 253 kts | 328° |
| 2026-05-08 18:56 | 28.71983 | 48.26506 | 7302 ft | 251 kts | 328° |
| 2026-05-08 18:57 | 28.73527 | 48.25588 | 7076 ft | 249 kts | 328° |
| 2026-05-08 18:57 | 28.74547 | 48.24981 | 6916 ft | 248 kts | 328° |
| 2026-05-08 18:57 | 28.76592 | 48.23766 | 6617 ft | 246 kts | 328° |
| 2026-05-08 18:57 | 28.78106 | 48.22867 | 6399 ft | 245 kts | 328° |
| 2026-05-08 18:58 | 28.79610 | 48.21970 | 6174 ft | 245 kts | 328° |
| 2026-05-08 18:58 | 28.81130 | 48.21062 | 5931 ft | 244 kts | 328° |
| 2026-05-08 18:58 | 28.82628 | 48.20169 | 5695 ft | 243 kts | 328° |
| 2026-05-08 18:58 | 28.84135 | 48.19270 | 5456 ft | 242 kts | 329° |
| 2026-05-08 18:59 | 28.85625 | 48.18384 | 5204 ft | 241 kts | 329° |
| 2026-05-08 18:59 | 28.87118 | 48.17493 | 4946 ft | 241 kts | 329° |
| 2026-05-08 18:59 | 28.88606 | 48.16607 | 4684 ft | 241 kts | 329° |
| 2026-05-08 18:59 | 28.90091 | 48.15719 | 4410 ft | 241 kts | 330° |
| 2026-05-08 19:00 | 28.91068 | 48.15138 | 4224 ft | 241 kts | 330° |
| 2026-05-08 19:00 | 28.93066 | 48.13945 | 3833 ft | 242 kts | 331° |
| 2026-05-08 19:00 | 28.94570 | 48.13048 | 3527 ft | 244 kts | 332° |
| 2026-05-08 19:00 | 28.96063 | 48.12157 | 3215 ft | 245 kts | 332° |
| 2026-05-08 19:01 | 28.97607 | 48.11352 | 2987 ft | 241 kts | 341° |
| 2026-05-08 19:01 | 28.99205 | 48.10751 | 3019 ft | 239 kts | 340° |
| 2026-05-08 19:01 | 29.00746 | 48.10153 | 2998 ft | 230 kts | 340° |
| 2026-05-08 19:01 | 29.02247 | 48.09574 | 2981 ft | 219 kts | 340° |
| 2026-05-08 19:02 | 29.03657 | 48.09026 | 2964 ft | 209 kts | 340° |
| 2026-05-08 19:02 | 29.04992 | 48.08495 | 2954 ft | 198 kts | 336° |
| 2026-05-08 19:02 | 29.06278 | 48.07812 | 2961 ft | 211 kts | 334° |
| 2026-05-08 19:02 | 29.07571 | 48.07090 | 2916 ft | 198 kts | 333° |
| 2026-05-08 19:03 | 29.08795 | 48.06412 | 2683 ft | 193 kts | 334° |
| 2026-05-08 19:03 | 29.10010 | 48.05777 | 2463 ft | 188 kts | 335° |
| 2026-05-08 19:03 | 29.10553 | 48.05493 | 2345 ft | 184 kts | 335° |
| 2026-05-08 19:03 | 29.11561 | 48.04964 | 2136 ft | 170 kts | 335° |
| 2026-05-08 19:04 | 29.12548 | 48.04445 | 2065 ft | 143 kts | 335° |
| 2026-05-08 19:04 | 29.13436 | 48.03978 | 1847 ft | 136 kts | 335° |
| 2026-05-08 19:04 | 29.14279 | 48.03532 | 1663 ft | 131 kts | 335° |
| 2026-05-08 19:04 | 29.15122 | 48.03088 | 1492 ft | 133 kts | 335° |
| 2026-05-08 19:05 | 29.15972 | 48.02641 | 1319 ft | 135 kts | 335° |
| 2026-05-08 19:05 | 29.16824 | 48.02191 | 1141 ft | 136 kts | 336° |
| 2026-05-08 19:05 | 29.17696 | 48.01732 | 966 ft | 137 kts | 336° |
| 2026-05-08 19:05 | 29.18559 | 48.01275 | 792 ft | 138 kts | 336° |
| 2026-05-08 19:06 | 29.19442 | 48.00810 | 614 ft | 138 kts | 336° |
| 2026-05-08 19:06 | 29.20326 | 48.00337 | 405 ft | 140 kts | 341° |
| 2026-05-08 19:06 | 29.21213 | 47.99872 | 250 ft | 142 kts | 339° |
| 2026-05-08 19:06 | 29.22052 | 47.99440 | 203 ft | 107 kts | 335° |
| 2026-05-08 19:07 | 29.22570 | 47.99165 | 192 ft | 57 kts | 334° |
| 2026-05-08 19:07 | 29.22914 | 47.98983 | 187 ft | 53 kts | 334° |
| 2026-05-08 19:07 | 29.23240 | 47.98804 | 183 ft | 50 kts | 340° |
| 2026-05-08 19:07 | 29.23552 | 47.98644 | 180 ft | 48 kts | 336° |
| 2026-05-08 19:08 | 29.23851 | 47.98483 | 174 ft | 47 kts | 335° |
| 2026-05-08 19:08 | 29.24053 | 47.98364 | 170 ft | 25 kts | 320° |
| 2026-05-08 19:08 | 29.24115 | 47.98199 | 170 ft | 23 kts | 251° |
| 2026-05-08 19:08 | 29.23999 | 47.98150 | 171 ft | 20 kts | 155° |
| 2026-05-08 19:09 | 29.23843 | 47.98234 | 171 ft | 27 kts | 155° |
| 2026-05-08 19:09 | 29.23663 | 47.98328 | 174 ft | 29 kts | 156° |
| 2026-05-08 19:09 | 29.23471 | 47.98430 | 179 ft | 31 kts | 154° |
| 2026-05-08 19:09 | 29.23268 | 47.98542 | 183 ft | 33 kts | 156° |
| 2026-05-08 19:10 | 29.23051 | 47.98653 | 187 ft | 35 kts | 155° |
| 2026-05-08 19:10 | 29.22819 | 47.98777 | 189 ft | 37 kts | 156° |
| 2026-05-08 19:10 | 29.22570 | 47.98907 | 191 ft | 40 kts | 153° |
| 2026-05-08 19:10 | 29.22354 | 47.99023 | 193 ft | 15 kts | 155° |
| 2026-05-08 19:11 | 29.22249 | 47.99078 | 194 ft | 17 kts | 155° |
| 2026-05-08 19:11 | 29.22128 | 47.99141 | 196 ft | 20 kts | 155° |
| 2026-05-08 19:11 | 29.21993 | 47.99216 | 198 ft | 22 kts | 153° |
| 2026-05-08 19:11 | 29.21840 | 47.99296 | 201 ft | 25 kts | 155° |
| 2026-05-08 19:12 | 29.21671 | 47.99384 | 202 ft | 28 kts | 155° |
| 2026-05-08 19:12 | 29.21615 | 47.99529 | 204 ft | 12 kts | 22° |
| 2026-05-08 19:12 | 29.21691 | 47.99522 | 205 ft | 22 kts | 355° |
| 2026-05-08 19:12 | 29.21961 | 47.99481 | 203 ft | 54 kts | 339° |
| 2026-05-08 19:13 | 29.22379 | 47.99263 | 195 ft | 76 kts | 335° |
| 2026-05-08 19:13 | 29.22909 | 47.98984 | 187 ft | 88 kts | 335° |
| 2026-05-08 19:13 | 29.23455 | 47.98694 | 181 ft | 77 kts | 335° |
| 2026-05-08 19:13 | 29.23855 | 47.98482 | 174 ft | 61 kts | 335° |
| 2026-05-08 19:14 | 29.24122 | 47.98262 | 170 ft | 32 kts | 279° |
| 2026-05-08 19:14 | 29.24136 | 47.98046 | 174 ft | 26 kts | 325° |
| 2026-05-08 19:14 | 29.24291 | 47.97958 | 179 ft | 22 kts | 335° |
| 2026-05-08 19:14 | 29.24342 | 47.97930 | 180 ft | 5 kts | 335° |
| 2026-05-08 19:15 | 29.24362 | 47.97911 | 181 ft | 3 kts | 301° |
| 2026-05-08 19:15 | 29.24358 | 47.97864 | 181 ft | 4 kts | 244° |
| 2026-05-08 19:15 | 29.24350 | 47.97842 | 181 ft | 4 kts | 249° |
| 2026-05-08 19:15 | 29.24347 | 47.97833 | 181 ft | 1 kts | 248° |